sensor_id;sensor_type;location;lat;lon;timestamp;pressure;altitude;pressure_sealevel;temperature;humidity
62374;BME280;48409;49.030;1.820;2023-02-22T00:01:39;100594.16;;;8.20;64.41
62374;BME280;48409;49.030;1.820;2023-02-22T00:04:11;100584.50;;;8.20;64.30
62374;BME280;48409;49.030;1.820;2023-02-22T00:06:37;100580.13;;;8.21;64.24
62374;BME280;48409;49.030;1.820;2023-02-22T00:09:02;100581.81;;;8.22;64.32
62374;BME280;48409;49.030;1.820;2023-02-22T00:11:27;100586.22;;;8.21;64.47
62374;BME280;48409;49.030;1.820;2023-02-22T00:13:56;100578.22;;;8.25;64.47
62374;BME280;48409;49.030;1.820;2023-02-22T00:16:22;100580.00;;;8.24;64.47
62374;BME280;48409;49.030;1.820;2023-02-22T00:18:57;100573.84;;;8.25;64.30
62374;BME280;48409;49.030;1.820;2023-02-22T00:21:22;100565.09;;;8.25;64.30
62374;BME280;48409;49.030;1.820;2023-02-22T00:23:47;100564.22;;;8.26;64.34
62374;BME280;48409;49.030;1.820;2023-02-22T00:26:17;100560.72;;;8.25;64.34
62374;BME280;48409;49.030;1.820;2023-02-22T00:28:44;100550.22;;;8.25;64.29
62374;BME280;48409;49.030;1.820;2023-02-22T00:31:10;100547.59;;;8.25;64.46
62374;BME280;48409;49.030;1.820;2023-02-22T00:33:37;100540.69;;;8.22;64.51
62374;BME280;48409;49.030;1.820;2023-02-22T00:36:02;100534.53;;;8.23;64.31
62374;BME280;48409;49.030;1.820;2023-02-22T00:38:30;100533.69;;;8.23;64.27
62374;BME280;48409;49.030;1.820;2023-02-22T00:40:55;100534.59;;;8.22;64.29
62374;BME280;48409;49.030;1.820;2023-02-22T00:43:20;100526.75;;;8.20;64.40
62374;BME280;48409;49.030;1.820;2023-02-22T00:45:46;100521.53;;;8.20;64.42
62374;BME280;48409;49.030;1.820;2023-02-22T00:48:13;100519.75;;;8.21;64.24
62374;BME280;48409;49.030;1.820;2023-02-22T00:50:38;100513.72;;;8.19;64.31
62374;BME280;48409;49.030;1.820;2023-02-22T00:53:04;100518.13;;;8.18;64.25
62374;BME280;48409;49.030;1.820;2023-02-22T00:55:32;100503.34;;;8.16;64.26
62374;BME280;48409;49.030;1.820;2023-02-22T00:57:58;100500.66;;;8.17;64.56
62374;BME280;48409;49.030;1.820;2023-02-22T01:00:31;100510.28;;;8.17;64.50
62374;BME280;48409;49.030;1.820;2023-02-22T01:02:56;100507.72;;;8.15;64.45
62374;BME280;48409;49.030;1.820;2023-02-22T01:05:25;100508.59;;;8.16;64.50
62374;BME280;48409;49.030;1.820;2023-02-22T01:07:51;100505.97;;;8.16;64.51
62374;BME280;48409;49.030;1.820;2023-02-22T01:10:17;100499.91;;;8.14;64.34
62374;BME280;48409;49.030;1.820;2023-02-22T01:12:43;100492.03;;;8.14;64.34
62374;BME280;48409;49.030;1.820;2023-02-22T01:15:09;100490.34;;;8.13;64.50
62374;BME280;48409;49.030;1.820;2023-02-22T01:17:35;100497.38;;;8.12;64.26
62374;BME280;48409;49.030;1.820;2023-02-22T01:20:01;100501.75;;;8.12;64.54
62374;BME280;48409;49.030;1.820;2023-02-22T01:22:28;100505.16;;;8.14;64.57
62374;BME280;48409;49.030;1.820;2023-02-22T01:24:53;100500.88;;;8.11;64.37
62374;BME280;48409;49.030;1.820;2023-02-22T01:27:19;100506.19;;;8.09;64.36
62374;BME280;48409;49.030;1.820;2023-02-22T01:29:44;100514.00;;;8.11;64.34
62374;BME280;48409;49.030;1.820;2023-02-22T01:32:12;100515.78;;;8.10;64.36
62374;BME280;48409;49.030;1.820;2023-02-22T01:34:38;100509.69;;;8.10;64.44
62374;BME280;48409;49.030;1.820;2023-02-22T01:37:03;100503.56;;;8.09;64.35
62374;BME280;48409;49.030;1.820;2023-02-22T01:39:30;100500.94;;;8.09;64.58
62374;BME280;48409;49.030;1.820;2023-02-22T01:41:55;100503.56;;;8.09;64.48
62374;BME280;48409;49.030;1.820;2023-02-22T01:44:34;100498.47;;;8.06;64.40
62374;BME280;48409;49.030;1.820;2023-02-22T01:47:01;100496.63;;;8.08;64.50
62374;BME280;48409;49.030;1.820;2023-02-22T01:49:31;100507.13;;;8.08;64.44
62374;BME280;48409;49.030;1.820;2023-02-22T01:51:59;100507.13;;;8.08;64.40
62374;BME280;48409;49.030;1.820;2023-02-22T01:54:33;100503.72;;;8.06;64.46
62374;BME280;48409;49.030;1.820;2023-02-22T01:59:25;100498.47;;;8.06;64.40
62374;BME280;48409;49.030;1.820;2023-02-22T02:01:51;100498.47;;;8.06;64.37
62374;BME280;48409;49.030;1.820;2023-02-22T02:04:18;100487.09;;;8.06;64.38
62374;BME280;48409;49.030;1.820;2023-02-22T02:06:44;100484.53;;;8.04;64.39
62374;BME280;48409;49.030;1.820;2023-02-22T02:11:39;100482.84;;;8.03;64.62
62374;BME280;48409;49.030;1.820;2023-02-22T02:14:06;100486.38;;;8.02;64.38
62374;BME280;48409;49.030;1.820;2023-02-22T02:16:34;100487.31;;;8.01;64.39
62374;BME280;48409;49.030;1.820;2023-02-22T02:19:04;100474.19;;;8.01;64.48
62374;BME280;48409;49.030;1.820;2023-02-22T02:27:11;100478.63;;;7.99;64.56
62374;BME280;48409;49.030;1.820;2023-02-22T02:32:19;100462.09;;;7.97;64.36
62374;BME280;48409;49.030;1.820;2023-02-22T02:37:47;100462.09;;;7.97;64.50
62374;BME280;48409;49.030;1.820;2023-02-22T02:40:22;100449.03;;;7.95;64.40
62374;BME280;48409;49.030;1.820;2023-02-22T02:42:52;100450.75;;;7.96;64.49
62374;BME280;48409;49.030;1.820;2023-02-22T02:45:23;100451.72;;;7.94;64.59
62374;BME280;48409;49.030;1.820;2023-02-22T02:47:54;100449.09;;;7.94;64.64
62374;BME280;48409;49.030;1.820;2023-02-22T02:50:56;100450.78;;;7.95;64.51
62374;BME280;48409;49.030;1.820;2023-02-22T02:53:15;100447.34;;;7.94;64.53
62374;BME280;48409;49.030;1.820;2023-02-22T02:55:42;100450.00;;;7.93;64.49
62374;BME280;48409;49.030;1.820;2023-02-22T02:58:07;100457.81;;;7.94;64.58
62374;BME280;48409;49.030;1.820;2023-02-22T03:00:35;100450.00;;;7.93;64.43
62374;BME280;48409;49.030;1.820;2023-02-22T03:03:06;100447.38;;;7.93;64.55
62374;BME280;48409;49.030;1.820;2023-02-22T03:08:11;100441.34;;;7.91;64.60
62374;BME280;48409;49.030;1.820;2023-02-22T03:18:39;100438.03;;;7.86;64.61
62374;BME280;48409;49.030;1.820;2023-02-22T03:21:18;100435.47;;;7.84;64.52
62374;BME280;48409;49.030;1.820;2023-02-22T03:26:21;100432.06;;;7.82;64.51
62374;BME280;48409;49.030;1.820;2023-02-22T03:28:48;100434.75;;;7.80;64.50
62374;BME280;48409;49.030;1.820;2023-02-22T03:31:16;100433.03;;;7.79;64.49
62374;BME280;48409;49.030;1.820;2023-02-22T03:33:48;100430.44;;;7.79;64.71
62374;BME280;48409;49.030;1.820;2023-02-22T03:36:15;100433.94;;;7.78;64.53
62374;BME280;48409;49.030;1.820;2023-02-22T03:38:42;100434.84;;;7.77;64.67
62374;BME280;48409;49.030;1.820;2023-02-22T03:41:08;100438.41;;;7.76;64.69
62374;BME280;48409;49.030;1.820;2023-02-22T03:43:37;100429.72;;;7.74;64.67
62374;BME280;48409;49.030;1.820;2023-02-22T03:46:04;100429.72;;;7.74;64.58
62374;BME280;48409;49.030;1.820;2023-02-22T03:50:57;100424.63;;;7.71;64.71
62374;BME280;48409;49.030;1.820;2023-02-22T03:53:25;100436.81;;;7.72;64.56
62374;BME280;48409;49.030;1.820;2023-02-22T03:55:50;100426.38;;;7.70;64.56
62374;BME280;48409;49.030;1.820;2023-02-22T03:58:19;100414.19;;;7.69;64.50
62374;BME280;48409;49.030;1.820;2023-02-22T04:00:45;100414.25;;;7.68;64.60
62374;BME280;48409;49.030;1.820;2023-02-22T04:03:11;100409.00;;;7.68;64.74
62374;BME280;48409;49.030;1.820;2023-02-22T04:05:36;100408.22;;;7.66;64.52
62374;BME280;48409;49.030;1.820;2023-02-22T04:08:02;100409.97;;;7.65;64.67
62374;BME280;48409;49.030;1.820;2023-02-22T04:10:27;100409.09;;;7.65;64.60
62374;BME280;48409;49.030;1.820;2023-02-22T04:12:53;100412.66;;;7.64;64.56
62374;BME280;48409;49.030;1.820;2023-02-22T04:15:20;100409.25;;;7.62;64.56
62374;BME280;48409;49.030;1.820;2023-02-22T04:17:46;100407.50;;;7.61;64.55
62374;BME280;48409;49.030;1.820;2023-02-22T04:20:11;100414.50;;;7.62;64.54
62374;BME280;48409;49.030;1.820;2023-02-22T04:22:37;100421.53;;;7.60;64.74
62374;BME280;48409;49.030;1.820;2023-02-22T04:25:03;100421.53;;;7.60;64.55
62374;BME280;48409;49.030;1.820;2023-02-22T04:27:28;100425.09;;;7.58;64.64
62374;BME280;48409;49.030;1.820;2023-02-22T04:29:53;100428.63;;;7.57;64.50
62374;BME280;48409;49.030;1.820;2023-02-22T04:32:19;100426.91;;;7.56;64.69
62374;BME280;48409;49.030;1.820;2023-02-22T04:34:46;100426.09;;;7.54;64.75
62374;BME280;48409;49.030;1.820;2023-02-22T04:37:12;100423.50;;;7.54;64.68
62374;BME280;48409;49.030;1.820;2023-02-22T04:39:37;100424.47;;;7.52;64.54
62374;BME280;48409;49.030;1.820;2023-02-22T04:42:02;100428.84;;;7.51;64.70
62374;BME280;48409;49.030;1.820;2023-02-22T04:44:29;100417.56;;;7.49;64.54
62374;BME280;48409;49.030;1.820;2023-02-22T04:46:54;100408.84;;;7.49;64.50
62374;BME280;48409;49.030;1.820;2023-02-22T04:49:23;100416.69;;;7.49;64.64
62374;BME280;48409;49.030;1.820;2023-02-22T04:51:48;100422.88;;;7.48;64.49
62374;BME280;48409;49.030;1.820;2023-02-22T04:54:13;100414.13;;;7.47;64.54
62374;BME280;48409;49.030;1.820;2023-02-22T04:56:41;100422.91;;;7.46;64.51
62374;BME280;48409;49.030;1.820;2023-02-22T04:59:06;100416.91;;;7.44;64.65
62374;BME280;48409;49.030;1.820;2023-02-22T05:01:32;100422.97;;;7.44;64.73
62374;BME280;48409;49.030;1.820;2023-02-22T05:04:03;100427.38;;;7.44;64.64
62374;BME280;48409;49.030;1.820;2023-02-22T05:06:29;100433.59;;;7.41;64.81
62374;BME280;48409;49.030;1.820;2023-02-22T05:08:54;100432.72;;;7.41;64.57
62374;BME280;48409;49.030;1.820;2023-02-22T05:11:19;100429.31;;;7.39;64.64
62374;BME280;48409;49.030;1.820;2023-02-22T05:13:46;100433.63;;;7.40;64.50
62374;BME280;48409;49.030;1.820;2023-02-22T05:16:11;100415.41;;;7.37;64.65
62374;BME280;48409;49.030;1.820;2023-02-22T05:18:36;100431.13;;;7.37;64.48
62374;BME280;48409;49.030;1.820;2023-02-22T05:21:02;100425.88;;;7.37;64.56
62374;BME280;48409;49.030;1.820;2023-02-22T05:23:29;100425.09;;;7.35;64.55
62374;BME280;48409;49.030;1.820;2023-02-22T05:25:55;100430.34;;;7.35;64.66
62374;BME280;48409;49.030;1.820;2023-02-22T05:28:23;100436.47;;;7.34;64.56
62374;BME280;48409;49.030;1.820;2023-02-22T05:30:48;100433.84;;;7.34;64.77
62374;BME280;48409;49.030;1.820;2023-02-22T05:33:13;100438.31;;;7.31;64.52
62374;BME280;48409;49.030;1.820;2023-02-22T05:35:39;100426.13;;;7.30;64.73
62374;BME280;48409;49.030;1.820;2023-02-22T05:38:06;100429.56;;;7.31;64.61
62374;BME280;48409;49.030;1.820;2023-02-22T05:40:31;100426.13;;;7.30;64.68
62374;BME280;48409;49.030;1.820;2023-02-22T05:42:57;100427.09;;;7.28;64.57
62374;BME280;48409;49.030;1.820;2023-02-22T05:45:23;100427.09;;;7.28;64.60
62374;BME280;48409;49.030;1.820;2023-02-22T05:47:49;100436.69;;;7.27;64.73
62374;BME280;48409;49.030;1.820;2023-02-22T05:50:15;100445.47;;;7.26;64.45
62374;BME280;48409;49.030;1.820;2023-02-22T05:52:40;100432.47;;;7.23;64.78
62374;BME280;48409;49.030;1.820;2023-02-22T05:55:06;100439.44;;;7.24;64.63
62374;BME280;48409;49.030;1.820;2023-02-22T05:57:32;100429.88;;;7.23;64.81
62374;BME280;48409;49.030;1.820;2023-02-22T05:59:57;100438.63;;;7.22;64.63
62374;BME280;48409;49.030;1.820;2023-02-22T06:02:22;100444.72;;;7.23;64.68
62374;BME280;48409;49.030;1.820;2023-02-22T06:04:50;100449.13;;;7.22;64.61
62374;BME280;48409;49.030;1.820;2023-02-22T06:07:15;100449.13;;;7.22;64.60
62374;BME280;48409;49.030;1.820;2023-02-22T06:09:40;100449.22;;;7.19;64.72
62374;BME280;48409;49.030;1.820;2023-02-22T06:12:06;100450.94;;;7.20;64.56
62374;BME280;48409;49.030;1.820;2023-02-22T06:14:31;100441.34;;;7.19;64.54
62374;BME280;48409;49.030;1.820;2023-02-22T06:16:57;100444.84;;;7.20;64.75
62374;BME280;48409;49.030;1.820;2023-02-22T06:19:22;100442.28;;;7.18;64.44
62374;BME280;48409;49.030;1.820;2023-02-22T06:21:51;100444.91;;;7.18;64.83
62374;BME280;48409;49.030;1.820;2023-02-22T06:24:17;100449.31;;;7.16;64.54
62374;BME280;48409;49.030;1.820;2023-02-22T06:26:42;100453.72;;;7.15;64.47
62374;BME280;48409;49.030;1.820;2023-02-22T06:29:08;100447.63;;;7.15;64.62
62374;BME280;48409;49.030;1.820;2023-02-22T06:31:33;100435.44;;;7.14;64.63
62374;BME280;48409;49.030;1.820;2023-02-22T06:33:59;100432.81;;;7.14;64.75
62374;BME280;48409;49.030;1.820;2023-02-22T06:36:24;100424.97;;;7.14;64.70
62374;BME280;48409;49.030;1.820;2023-02-22T06:38:49;100433.75;;;7.13;64.57
62374;BME280;48409;49.030;1.820;2023-02-22T06:41:14;100426.75;;;7.12;64.72
62374;BME280;48409;49.030;1.820;2023-02-22T06:43:40;100432.00;;;7.12;64.62
62374;BME280;48409;49.030;1.820;2023-02-22T06:46:08;100436.41;;;7.11;64.81
62374;BME280;48409;49.030;1.820;2023-02-22T06:48:35;100445.09;;;7.12;64.88
62374;BME280;48409;49.030;1.820;2023-02-22T06:51:00;100446.94;;;7.10;64.74
62374;BME280;48409;49.030;1.820;2023-02-22T06:53:25;100464.41;;;7.09;64.69
62374;BME280;48409;49.030;1.820;2023-02-22T06:55:52;100465.28;;;7.10;64.80
62374;BME280;48409;49.030;1.820;2023-02-22T06:58:17;100464.41;;;7.09;64.86
62374;BME280;48409;49.030;1.820;2023-02-22T07:00:42;100462.69;;;7.08;64.79
62374;BME280;48409;49.030;1.820;2023-02-22T07:03:08;100450.53;;;7.07;64.70
62374;BME280;48409;49.030;1.820;2023-02-22T07:05:34;100451.34;;;7.08;64.62
62374;BME280;48409;49.030;1.820;2023-02-22T07:08:01;100454.88;;;7.07;64.81
62374;BME280;48409;49.030;1.820;2023-02-22T07:10:27;100447.94;;;7.05;64.69
62374;BME280;48409;49.030;1.820;2023-02-22T07:12:53;100458.44;;;7.05;64.73
62374;BME280;48409;49.030;1.820;2023-02-22T07:15:19;100480.25;;;7.06;64.90
62374;BME280;48409;49.030;1.820;2023-02-22T07:17:45;100477.63;;;7.06;64.67
62374;BME280;48409;49.030;1.820;2023-02-22T07:20:11;100485.47;;;7.06;64.91
62374;BME280;48409;49.030;1.820;2023-02-22T07:22:37;100483.75;;;7.05;64.77
62374;BME280;48409;49.030;1.820;2023-02-22T07:25:03;100488.94;;;7.07;64.73
62374;BME280;48409;49.030;1.820;2023-02-22T07:27:28;100495.09;;;7.05;64.92
62374;BME280;48409;49.030;1.820;2023-02-22T07:29:54;100499.41;;;7.07;64.72
62374;BME280;48409;49.030;1.820;2023-02-22T07:32:19;100500.28;;;7.07;64.96
62374;BME280;48409;49.030;1.820;2023-02-22T07:35:02;100498.50;;;7.08;64.73
62374;BME280;48409;49.030;1.820;2023-02-22T07:37:27;100501.06;;;7.09;64.86
62374;BME280;48409;49.030;1.820;2023-02-22T07:39:53;100498.41;;;7.11;64.97
62374;BME280;48409;49.030;1.820;2023-02-22T07:42:18;100503.63;;;7.11;64.94
62374;BME280;48409;49.030;1.820;2023-02-22T07:44:44;100507.06;;;7.13;64.77
62374;BME280;48409;49.030;1.820;2023-02-22T07:47:09;100516.63;;;7.14;64.82
62374;BME280;48409;49.030;1.820;2023-02-22T07:49:36;100505.25;;;7.15;65.04
62374;BME280;48409;49.030;1.820;2023-02-22T07:52:02;100515.63;;;7.18;64.89
62374;BME280;48409;49.030;1.820;2023-02-22T07:54:27;100515.59;;;7.20;64.94
62374;BME280;48409;49.030;1.820;2023-02-22T07:56:52;100511.13;;;7.22;64.98
62374;BME280;48409;49.030;1.820;2023-02-22T07:59:17;100513.69;;;7.23;65.07
62374;BME280;48409;49.030;1.820;2023-02-22T08:01:43;100517.97;;;7.26;65.06
62374;BME280;48409;49.030;1.820;2023-02-22T08:04:08;100504.81;;;7.27;65.15
62374;BME280;48409;49.030;1.820;2023-02-22T08:06:33;100509.09;;;7.30;65.19
62374;BME280;48409;49.030;1.820;2023-02-22T08:08:59;100516.00;;;7.32;65.09
62374;BME280;48409;49.030;1.820;2023-02-22T08:11:24;100510.66;;;7.36;65.01
62374;BME280;48409;49.030;1.820;2023-02-22T08:13:50;100510.59;;;7.37;65.14
62374;BME280;48409;49.030;1.820;2023-02-22T08:16:15;100520.13;;;7.40;65.33
62374;BME280;48409;49.030;1.820;2023-02-22T08:18:40;100514.75;;;7.43;65.27
62374;BME280;48409;49.030;1.820;2023-02-22T08:21:06;100515.56;;;7.45;65.31
62374;BME280;48409;49.030;1.820;2023-02-22T08:23:31;100524.22;;;7.47;65.42
62374;BME280;48409;49.030;1.820;2023-02-22T08:26:02;100523.19;;;7.51;65.48
62374;BME280;48409;49.030;1.820;2023-02-22T08:28:30;100517.84;;;7.54;65.48
62374;BME280;48409;49.030;1.820;2023-02-22T08:30:55;100518.66;;;7.56;65.36
62374;BME280;48409;49.030;1.820;2023-02-22T08:33:21;100517.63;;;7.61;65.51
62374;BME280;48409;49.030;1.820;2023-02-22T08:35:47;100516.69;;;7.63;65.56
62374;BME280;48409;49.030;1.820;2023-02-22T08:38:29;100516.53;;;7.66;65.64
62374;BME280;48409;49.030;1.820;2023-02-22T08:40:54;100517.31;;;7.70;65.70
62374;BME280;48409;49.030;1.820;2023-02-22T08:43:24;100517.16;;;7.73;65.68
62374;BME280;48409;49.030;1.820;2023-02-22T08:45:52;100525.72;;;7.78;65.59
62374;BME280;48409;49.030;1.820;2023-02-22T08:48:17;100525.59;;;7.81;65.71
62374;BME280;48409;49.030;1.820;2023-02-22T08:50:45;100522.88;;;7.84;65.86
62374;BME280;48409;49.030;1.820;2023-02-22T08:53:11;100527.09;;;7.89;65.81
62374;BME280;48409;49.030;1.820;2023-02-22T08:55:37;100526.97;;;7.92;65.68
62374;BME280;48409;49.030;1.820;2023-02-22T08:58:04;100520.69;;;7.96;65.97
62374;BME280;48409;49.030;1.820;2023-02-22T09:00:31;100528.44;;;7.99;65.72
62374;BME280;48409;49.030;1.820;2023-02-22T09:02:58;100524.81;;;8.03;65.78
62374;BME280;48409;49.030;1.820;2023-02-22T09:05:23;100523.00;;;8.05;65.86
62374;BME280;48409;49.030;1.820;2023-02-22T09:07:51;100535.06;;;8.09;65.99
62374;BME280;48409;49.030;1.820;2023-02-22T09:10:17;100530.63;;;8.12;65.85
62374;BME280;48409;49.030;1.820;2023-02-22T09:12:43;100530.50;;;8.15;66.04
62374;BME280;48409;49.030;1.820;2023-02-22T09:15:08;100548.72;;;8.18;65.96
62374;BME280;48409;49.030;1.820;2023-02-22T09:17:34;100547.69;;;8.22;65.83
62374;BME280;48409;49.030;1.820;2023-02-22T09:20:05;100560.78;;;8.23;66.07
62374;BME280;48409;49.030;1.820;2023-02-22T09:22:31;100553.63;;;8.27;66.13
62374;BME280;48409;49.030;1.820;2023-02-22T09:24:56;100553.50;;;8.30;65.96
62374;BME280;48409;49.030;1.820;2023-02-22T09:27:21;100554.38;;;8.31;65.92
62374;BME280;48409;49.030;1.820;2023-02-22T09:29:47;100555.09;;;8.34;65.94
62374;BME280;48409;49.030;1.820;2023-02-22T09:32:16;100553.28;;;8.36;66.12
62374;BME280;48409;49.030;1.820;2023-02-22T09:34:42;100556.69;;;8.39;66.09
62374;BME280;48409;49.030;1.820;2023-02-22T09:37:10;100552.22;;;8.41;66.12
62374;BME280;48409;49.030;1.820;2023-02-22T09:39:36;100541.63;;;8.44;66.13
62374;BME280;48409;49.030;1.820;2023-02-22T09:47:42;100552.72;;;8.51;66.22
62374;BME280;48409;49.030;1.820;2023-02-22T09:50:02;100551.78;;;8.53;66.07
62374;BME280;48409;49.030;1.820;2023-02-22T09:52:29;100534.22;;;8.55;66.22
62374;BME280;48409;49.030;1.820;2023-02-22T09:55:03;100536.69;;;8.58;66.20
62374;BME280;48409;49.030;1.820;2023-02-22T09:57:35;100541.84;;;8.61;66.10
62374;BME280;48409;49.030;1.820;2023-02-22T10:02:59;100536.47;;;8.65;66.10
62374;BME280;48409;49.030;1.820;2023-02-22T10:05:31;100525.84;;;8.68;66.17
62374;BME280;48409;49.030;1.820;2023-02-22T10:07:58;100524.00;;;8.70;66.21
62374;BME280;48409;49.030;1.820;2023-02-22T10:10:30;100537.84;;;8.73;66.16
62374;BME280;48409;49.030;1.820;2023-02-22T10:22:51;100533.81;;;8.87;66.23
62374;BME280;48409;49.030;1.820;2023-02-22T10:25:21;100539.84;;;8.89;66.30
62374;BME280;48409;49.030;1.820;2023-02-22T10:30:20;100537.88;;;8.94;66.40
62374;BME280;48409;49.030;1.820;2023-02-22T10:33:12;100552.66;;;8.97;66.27
62374;BME280;48409;49.030;1.820;2023-02-22T10:35:39;100542.03;;;9.00;66.26
62374;BME280;48409;49.030;1.820;2023-02-22T10:38:09;100549.88;;;9.01;66.37
62374;BME280;48409;49.030;1.820;2023-02-22T10:40:36;100548.06;;;9.02;66.22
62374;BME280;48409;49.030;1.820;2023-02-22T10:43:05;100547.94;;;9.05;66.42
62374;BME280;48409;49.030;1.820;2023-02-22T10:45:32;100544.34;;;9.08;66.39
62374;BME280;48409;49.030;1.820;2023-02-22T10:48:19;100547.81;;;9.08;66.42
62374;BME280;48409;49.030;1.820;2023-02-22T10:50:45;100548.59;;;9.10;66.37
62374;BME280;48409;49.030;1.820;2023-02-22T10:53:11;100541.59;;;9.11;66.37
62374;BME280;48409;49.030;1.820;2023-02-22T10:58:22;100537.97;;;9.13;66.15
62374;BME280;48409;49.030;1.820;2023-02-22T11:00:48;100536.13;;;9.16;66.22
62374;BME280;48409;49.030;1.820;2023-02-22T11:03:16;100545.75;;;9.17;66.23
62374;BME280;48409;49.030;1.820;2023-02-22T11:05:42;100547.50;;;9.16;66.20
62374;BME280;48409;49.030;1.820;2023-02-22T11:10:45;100538.63;;;9.19;66.47
62374;BME280;48409;49.030;1.820;2023-02-22T11:13:32;100536.88;;;9.19;66.25
62374;BME280;48409;49.030;1.820;2023-02-22T11:15:58;100538.56;;;9.20;66.29
62374;BME280;48409;49.030;1.820;2023-02-22T11:18:25;100534.19;;;9.21;66.38
62374;BME280;48409;49.030;1.820;2023-02-22T11:23:25;100535.88;;;9.22;66.17
62374;BME280;48409;49.030;1.820;2023-02-22T11:25:57;100539.28;;;9.24;66.46
62374;BME280;48409;49.030;1.820;2023-02-22T11:28:26;100535.72;;;9.25;66.22
62374;BME280;48409;49.030;1.820;2023-02-22T11:30:57;100537.47;;;9.26;66.22
62374;BME280;48409;49.030;1.820;2023-02-22T11:33:24;100539.16;;;9.27;66.24
62374;BME280;48409;49.030;1.820;2023-02-22T11:38:28;100532.03;;;9.29;66.22
62374;BME280;48409;49.030;1.820;2023-02-22T11:43:28;100535.41;;;9.33;66.39
62374;BME280;48409;49.030;1.820;2023-02-22T11:46:03;100530.09;;;9.34;66.28
62374;BME280;48409;49.030;1.820;2023-02-22T12:15:42;100511.81;;;9.52;66.26
62374;BME280;48409;49.030;1.820;2023-02-22T12:28:22;100495.75;;;9.58;66.41
62374;BME280;48409;49.030;1.820;2023-02-22T12:33:46;100506.91;;;9.63;66.53
62374;BME280;48409;49.030;1.820;2023-02-22T12:36:14;100505.06;;;9.65;66.59
62374;BME280;48409;49.030;1.820;2023-02-22T12:38:41;100507.53;;;9.69;66.39
62374;BME280;48409;49.030;1.820;2023-02-22T12:41:17;100497.88;;;9.69;66.40
62374;BME280;48409;49.030;1.820;2023-02-22T12:43:48;100497.81;;;9.71;66.40
62374;BME280;48409;49.030;1.820;2023-02-22T12:46:29;100503.00;;;9.72;66.63
62374;BME280;48409;49.030;1.820;2023-02-22T12:49:09;100500.28;;;9.74;66.45
62374;BME280;48409;49.030;1.820;2023-02-22T12:51:43;100496.75;;;9.75;66.46
62374;BME280;48409;49.030;1.820;2023-02-22T12:54:13;100501.84;;;9.78;66.59
62374;BME280;48409;49.030;1.820;2023-02-22T12:59:25;100499.16;;;9.79;66.45
62374;BME280;48409;49.030;1.820;2023-02-22T13:01:57;100492.91;;;9.82;66.53
62374;BME280;48409;49.030;1.820;2023-02-22T13:04:24;100491.06;;;9.84;66.53
62374;BME280;48409;49.030;1.820;2023-02-22T13:06:58;100485.81;;;9.84;66.41
62374;BME280;48409;49.030;1.820;2023-02-22T13:09:40;100484.81;;;9.87;66.60
62374;BME280;48409;49.030;1.820;2023-02-22T13:17:19;100482.13;;;9.88;66.41
62374;BME280;48409;49.030;1.820;2023-02-22T13:22:31;100478.53;;;9.89;66.41
62374;BME280;48409;49.030;1.820;2023-02-22T13:25:01;100481.94;;;9.91;66.41
62374;BME280;48409;49.030;1.820;2023-02-22T13:30:02;100481.03;;;9.92;66.47
62374;BME280;48409;49.030;1.820;2023-02-22T13:32:31;100473.16;;;9.92;66.46
62374;BME280;48409;49.030;1.820;2023-02-22T13:53:12;100470.28;;;9.97;66.38
62374;BME280;48409;49.030;1.820;2023-02-22T13:55:40;100464.19;;;9.97;66.40
62374;BME280;48409;49.030;1.820;2023-02-22T13:58:07;100466.81;;;9.97;66.36
62374;BME280;48409;49.030;1.820;2023-02-22T14:00:41;100471.16;;;9.98;66.51
62374;BME280;48409;49.030;1.820;2023-02-22T14:13:31;100460.63;;;9.98;66.59
62374;BME280;48409;49.030;1.820;2023-02-22T14:18:28;100455.38;;;9.98;66.52
62374;BME280;48409;49.030;1.820;2023-02-22T14:21:04;100464.88;;;10.00;66.42
62374;BME280;48409;49.030;1.820;2023-02-22T14:23:40;100462.31;;;9.99;66.47
62374;BME280;48409;49.030;1.820;2023-02-22T14:28:53;100469.28;;;10.00;66.57
62374;BME280;48409;49.030;1.820;2023-02-22T14:31:32;100469.22;;;10.01;66.53
62374;BME280;48409;49.030;1.820;2023-02-22T14:36:57;100464.81;;;10.02;66.42
62374;BME280;48409;49.030;1.820;2023-02-22T14:41:57;100462.19;;;10.02;66.48
62374;BME280;48409;49.030;1.820;2023-02-22T14:44:30;100471.78;;;10.03;66.53
62374;BME280;48409;49.030;1.820;2023-02-22T14:46:57;100463.88;;;10.03;66.40
62374;BME280;48409;49.030;1.820;2023-02-22T14:49:29;100458.63;;;10.03;66.51
62374;BME280;48409;49.030;1.820;2023-02-22T14:51:57;100467.44;;;10.02;66.47
62374;BME280;48409;49.030;1.820;2023-02-22T14:54:46;100465.59;;;10.04;66.44
62374;BME280;48409;49.030;1.820;2023-02-22T14:57:20;100463.88;;;10.03;66.55
62374;BME280;48409;49.030;1.820;2023-02-22T15:02:17;100448.09;;;10.03;66.45
62374;BME280;48409;49.030;1.820;2023-02-22T15:04:53;100446.34;;;10.03;66.48
62374;BME280;48409;49.030;1.820;2023-02-22T15:07:27;100451.53;;;10.05;66.45
62374;BME280;48409;49.030;1.820;2023-02-22T15:12:33;100455.06;;;10.04;66.53
62374;BME280;48409;49.030;1.820;2023-02-22T15:15:33;100456.78;;;10.05;66.51
62374;BME280;48409;49.030;1.820;2023-02-22T15:17:57;100462.06;;;10.05;66.56
62374;BME280;48409;49.030;1.820;2023-02-22T15:20:32;100455.84;;;10.06;66.46
62374;BME280;48409;49.030;1.820;2023-02-22T15:23:08;100458.50;;;10.06;66.45
62374;BME280;48409;49.030;1.820;2023-02-22T15:25:35;100457.69;;;10.04;66.66
62374;BME280;48409;49.030;1.820;2023-02-22T15:28:03;100456.69;;;10.06;66.46
62374;BME280;48409;49.030;1.820;2023-02-22T15:30:30;100460.25;;;10.05;66.46
62374;BME280;48409;49.030;1.820;2023-02-22T15:33:08;100451.53;;;10.05;66.55
62374;BME280;48409;49.030;1.820;2023-02-22T15:35:39;100465.44;;;10.07;66.46
62374;BME280;48409;49.030;1.820;2023-02-22T15:40:36;100460.25;;;10.05;66.37
62374;BME280;48409;49.030;1.820;2023-02-22T15:43:20;100458.50;;;10.06;66.56
62374;BME280;48409;49.030;1.820;2023-02-22T15:45:48;100456.78;;;10.05;66.48
62374;BME280;48409;49.030;1.820;2023-02-22T15:48:18;100461.13;;;10.06;66.48
62374;BME280;48409;49.030;1.820;2023-02-22T15:50:57;100455.06;;;10.04;66.53